Time;durP1;ratioP1;P1;durP2;ratioP2;P2;SDS_P1;SDS_P2;PMS_P1;PMS_P2;Temp;Humidity;BMP_temperature;BMP_pressure;BME280_temperature;BME280_humidity;BME280_pressure;Samples;Min_cycle;Max_cycle;Signal;HPM_P1;HPM_P2
2022/03/20 00:00:13;;;;;;;2.20;2.10;;;3.80;99.90;;;;;;6236211;28;20279;-76
2022/03/20 00:03:27;;;;;;;4.57;2.17;;;3.80;99.90;;;;;;6234526;28;20297;-76
2022/03/20 00:06:33;;;;;;;1.90;1.80;;;3.70;99.90;;;;;;6236538;28;20278;-75
2022/03/20 00:09:39;;;;;;;8.77;1.90;;;3.80;99.90;;;;;;6239953;28;20470;-75
2022/03/20 00:12:45;;;;;;;6.90;2.13;;;3.70;99.90;;;;;;6239837;28;20335;-75
2022/03/20 00:15:54;;;;;;;9.97;2.23;;;3.70;99.90;;;;;;6240734;28;20273;-75
2022/03/20 00:19:00;;;;;;;6.23;1.50;;;3.60;99.90;;;;;;6240259;28;20307;-76
2022/03/20 00:22:05;;;;;;;6.60;1.73;;;3.60;99.90;;;;;;6238889;28;20310;-75
2022/03/20 00:25:14;;;;;;;2.93;1.70;;;3.60;99.90;;;;;;6242747;28;20273;-77
2022/03/20 00:28:23;;;;;;;6.33;1.47;;;3.60;99.90;;;;;;6242455;28;20484;-77
2022/03/20 00:31:32;;;;;;;2.10;1.23;;;3.60;99.90;;;;;;6241135;28;20278;-76
2022/03/20 00:34:39;;;;;;;1.63;1.53;;;3.60;99.90;;;;;;6240866;28;20305;-78
2022/03/20 00:37:45;;;;;;;6.33;2.17;;;3.50;99.90;;;;;;6242630;28;20296;-78
2022/03/20 00:40:50;;;;;;;1.63;1.60;;;3.50;99.90;;;;;;6241576;28;20275;-76
2022/03/20 00:43:55;;;;;;;4.03;1.70;;;3.40;99.90;;;;;;6221548;28;20309;-77
2022/03/20 00:47:02;;;;;;;1.83;1.73;;;3.30;99.90;;;;;;6239497;28;20268;-74
2022/03/20 00:50:09;;;;;;;3.73;1.70;;;3.30;99.90;;;;;;6239359;28;20311;-74
2022/03/20 00:53:17;;;;;;;1.63;1.57;;;3.30;99.90;;;;;;6239453;28;20303;-80
2022/03/20 00:56:22;;;;;;;7.50;2.10;;;3.20;99.90;;;;;;6240101;28;20272;-77
2022/03/20 00:59:27;;;;;;;2.73;1.87;;;3.20;99.90;;;;;;6239656;28;20303;-76
2022/03/20 01:02:39;;;;;;;4.63;2.03;;;3.10;99.90;;;;;;6239046;28;20295;-76
2022/03/20 01:05:44;;;;;;;6.30;2.00;;;3.10;99.90;;;;;;6222050;28;20272;-76
2022/03/20 01:08:50;;;;;;;5.37;1.63;;;3.10;99.90;;;;;;6238625;28;20311;-77
2022/03/20 01:11:56;;;;;;;4.07;1.83;;;3.10;99.90;;;;;;6238877;28;20347;-77
2022/03/20 01:15:01;;;;;;;4.00;1.90;;;3.10;99.90;;;;;;6239366;28;20274;-76
2022/03/20 01:18:09;;;;;;;2.10;1.80;;;3.10;99.90;;;;;;6239153;28;20299;-76
2022/03/20 01:21:15;;;;;;;7.53;2.13;;;3.10;99.90;;;;;;6241550;28;20280;-78
2022/03/20 01:24:21;;;;;;;7.20;2.17;;;3.00;99.90;;;;;;6238892;28;20299;-73
2022/03/20 01:27:26;;;;;;;5.97;2.10;;;2.80;99.90;;;;;;6238258;28;20299;-76
2022/03/20 01:30:31;;;;;;;4.23;2.07;;;2.80;99.90;;;;;;6238091;28;20276;-75
2022/03/20 01:33:38;;;;;;;2.03;1.80;;;2.70;99.90;;;;;;6237528;28;20315;-76
2022/03/20 01:36:43;;;;;;;4.20;1.67;;;2.60;99.90;;;;;;6238622;28;20575;-76
2022/03/20 01:39:49;;;;;;;5.00;1.90;;;2.60;99.90;;;;;;6237847;28;20460;-76
2022/03/20 01:42:54;;;;;;;5.87;2.10;;;2.50;99.90;;;;;;6237691;28;20311;-76
2022/03/20 01:45:59;;;;;;;2.40;1.80;;;2.60;99.90;;;;;;6237816;28;20456;-75
2022/03/20 01:49:06;;;;;;;6.03;1.90;;;2.60;99.90;;;;;;6237545;28;20307;-75
2022/03/20 01:52:11;;;;;;;7.60;2.77;;;2.60;99.90;;;;;;6237278;28;20268;-75
2022/03/20 01:55:18;;;;;;;3.03;2.00;;;2.60;99.90;;;;;;6237742;28;20272;-76
2022/03/20 01:58:25;;;;;;;4.77;2.33;;;2.50;99.90;;;;;;6237426;28;20302;-76
2022/03/20 02:01:30;;;;;;;2.87;2.23;;;2.40;99.90;;;;;;6237551;28;20280;-76
2022/03/20 02:04:38;;;;;;;2.73;2.60;;;2.40;99.90;;;;;;6236919;28;20389;-75
2022/03/20 02:07:44;;;;;;;8.30;2.13;;;2.40;99.90;;;;;;6236338;28;20295;-76
2022/03/20 02:10:49;;;;;;;13.10;2.40;;;2.40;99.90;;;;;;6202610;28;20266;-76
2022/03/20 02:13:54;;;;;;;6.70;2.30;;;2.40;99.90;;;;;;6188225;28;20306;-76
2022/03/20 02:17:00;;;;;;;9.00;2.60;;;2.30;99.90;;;;;;6188972;28;20578;-76
2022/03/20 02:20:09;;;;;;;3.70;2.40;;;2.30;99.90;;;;;;6189101;28;20280;-76
2022/03/20 02:23:18;;;;;;;6.33;2.50;;;2.30;99.90;;;;;;6188633;28;20301;-76
2022/03/20 02:26:25;;;;;;;5.87;2.20;;;2.20;99.90;;;;;;6188724;28;20543;-76
2022/03/20 02:29:30;;;;;;;4.10;2.00;;;2.20;99.90;;;;;;6188983;28;20485;-76
2022/03/20 02:32:35;;;;;;;7.30;2.63;;;2.20;99.90;;;;;;6187048;28;20299;-73
2022/03/20 02:35:42;;;;;;;8.27;2.47;;;2.20;99.90;;;;;;6188703;28;20275;-75
2022/03/20 02:38:49;;;;;;;5.77;2.63;;;2.20;99.90;;;;;;6188285;28;20301;-75
2022/03/20 02:41:57;;;;;;;9.67;2.50;;;2.10;99.90;;;;;;6187698;28;20467;-76
2022/03/20 02:45:06;;;;;;;3.50;2.33;;;2.10;99.90;;;;;;6188807;28;20289;-77
2022/03/20 02:48:13;;;;;;;7.03;2.27;;;2.10;99.90;;;;;;6188149;28;20328;-74
2022/03/20 02:51:20;;;;;;;5.43;2.10;;;2.00;99.90;;;;;;6188318;28;20275;-74
2022/03/20 02:54:27;;;;;;;3.37;2.20;;;2.00;99.90;;;;;;6187959;28;20332;-73
2022/03/20 02:57:34;;;;;;;2.60;2.07;;;2.00;99.90;;;;;;6187494;28;20467;-74
2022/03/20 03:00:41;;;;;;;4.43;2.37;;;2.10;99.90;;;;;;6188243;28;20561;-74
2022/03/20 03:03:47;;;;;;;9.00;2.47;;;2.00;99.90;;;;;;6187614;28;20298;-74
2022/03/20 03:06:52;;;;;;;5.03;2.33;;;2.00;99.90;;;;;;6188630;28;20274;-77
2022/03/20 03:13:24;;;;;;;7.60;1.93;;;1.90;99.90;;;;;;6236302;28;20607;-76
2022/03/20 03:16:29;;;;;;;4.87;2.33;;;1.90;99.90;;;;;;6236290;28;20276;-76
2022/03/20 03:19:35;;;;;;;4.10;2.53;;;1.90;99.90;;;;;;6236060;28;20477;-76
2022/03/20 03:22:41;;;;;;;4.00;2.50;;;1.90;99.90;;;;;;6219177;28;20583;-73
2022/03/20 03:25:48;;;;;;;5.77;2.47;;;1.80;99.90;;;;;;6236567;28;20292;-73
2022/03/20 03:28:53;;;;;;;3.40;2.00;;;1.80;99.90;;;;;;6236093;28;20300;-74
2022/03/20 03:31:59;;;;;;;5.20;2.20;;;1.80;99.90;;;;;;6235225;28;20277;-74
2022/03/20 03:38:31;;;;;;;2.67;2.10;;;1.80;99.90;;;;;;6235814;28;20299;-74
2022/03/20 03:41:37;;;;;;;1.97;1.90;;;1.80;99.90;;;;;;6236765;28;20273;-76
2022/03/20 03:44:43;;;;;;;7.07;2.33;;;1.70;99.90;;;;;;6240367;28;20300;-76
2022/03/20 03:47:48;;;;;;;4.17;1.90;;;1.70;99.90;;;;;;6240474;28;20295;-76
2022/03/20 03:50:54;;;;;;;5.73;1.90;;;1.70;99.90;;;;;;6241422;28;20272;-76
2022/03/20 03:53:59;;;;;;;3.93;1.83;;;1.70;99.90;;;;;;6242231;28;20591;-78
2022/03/20 03:57:06;;;;;;;1.90;1.70;;;1.70;99.90;;;;;;6240640;28;20578;-75
2022/03/20 04:00:14;;;;;;;8.40;2.20;;;1.80;99.90;;;;;;6240561;28;20273;-75
2022/03/20 04:03:25;;;;;;;1.70;1.70;;;1.80;99.90;;;;;;6238768;28;20348;-74
2022/03/20 04:06:30;;;;;;;3.00;1.87;;;1.90;99.90;;;;;;6240899;28;20289;-78
2022/03/20 04:09:36;;;;;;;1.70;1.60;;;2.00;99.90;;;;;;6241026;28;20351;-77
2022/03/20 04:12:44;;;;;;;4.37;1.83;;;1.90;99.90;;;;;;6240520;28;20297;-77
2022/03/20 04:15:52;;;;;;;2.27;2.17;;;1.80;99.90;;;;;;6256227;28;20282;-77
2022/03/20 04:18:57;;;;;;;5.97;2.30;;;1.70;99.90;;;;;;6241054;28;20298;-77
2022/03/20 04:22:03;;;;;;;3.40;2.27;;;1.60;99.90;;;;;;6240340;28;20278;-77
2022/03/20 04:25:11;;;;;;;2.13;2.00;;;1.50;99.90;;;;;;6256651;28;20285;-77
2022/03/20 04:28:19;;;;;;;2.80;2.27;;;1.40;99.90;;;;;;6255243;28;20300;-77
2022/03/20 04:31:24;;;;;;;2.57;1.90;;;1.50;99.90;;;;;;6239922;28;20279;-77
2022/03/20 04:34:30;;;;;;;2.47;2.13;;;1.50;99.90;;;;;;6241020;28;20303;-85
2022/03/20 04:37:37;;;;;;;2.27;1.83;;;1.40;99.90;;;;;;6245086;28;20299;-83
2022/03/20 04:40:43;;;;;;;3.00;2.20;;;1.50;99.90;;;;;;6241914;28;20293;-80
2022/03/20 04:43:51;;;;;;;3.03;2.20;;;1.50;99.90;;;;;;6223986;28;20476;-80
2022/03/20 04:46:56;;;;;;;3.70;1.70;;;1.50;99.90;;;;;;6241600;28;20304;-78
2022/03/20 05:00:22;;;;;;;2.30;2.20;;;1.40;99.90;;;;;;6239579;28;20280;-75
2022/03/20 05:03:28;;;;;;;5.50;2.20;;;1.30;99.90;;;;;;6239507;28;20341;-75
2022/03/20 05:06:33;;;;;;;2.47;2.30;;;1.30;99.90;;;;;;6239493;28;20297;-74
2022/03/20 05:16:26;;;;;;;3.60;1.60;;;1.40;99.90;;;;;;6238637;28;20284;-74
2022/03/20 05:19:33;;;;;;;3.27;1.80;;;1.40;99.90;;;;;;6238391;28;20296;-75
2022/03/20 05:22:40;;;;;;;2.47;2.10;;;1.40;99.90;;;;;;6238206;28;20295;-75
2022/03/20 05:25:46;;;;;;;4.10;2.00;;;1.50;99.90;;;;;;6238363;28;20289;-76
2022/03/20 05:28:51;;;;;;;4.47;1.97;;;1.50;99.90;;;;;;6238615;28;20598;-77
2022/03/20 05:31:58;;;;;;;3.30;2.43;;;1.50;99.90;;;;;;6238861;28;20272;-78
2022/03/20 05:35:06;;;;;;;2.07;1.93;;;1.50;99.90;;;;;;6240199;28;20277;-78
2022/03/20 05:38:15;;;;;;;2.03;1.87;;;1.50;99.90;;;;;;6239711;28;20382;-79
2022/03/20 05:44:46;;;;;;;5.67;2.07;;;1.50;99.90;;;;;;6239910;28;20304;-79
2022/03/20 05:47:53;;;;;;;2.10;2.00;;;1.50;99.90;;;;;;6239281;28;20295;-79
2022/03/20 05:50:59;;;;;;;4.67;1.93;;;1.50;99.90;;;;;;6240396;28;20455;-79
2022/03/20 05:54:05;;;;;;;6.43;2.03;;;1.60;99.90;;;;;;6222760;28;20297;-80
2022/03/20 06:00:35;;;;;;;6.07;1.60;;;1.70;99.90;;;;;;6239134;28;20276;-80
2022/03/20 06:03:42;;;;;;;3.23;1.97;;;1.70;99.90;;;;;;6239206;28;20304;-80
2022/03/20 06:06:49;;;;;;;5.43;2.27;;;1.70;99.90;;;;;;6236727;28;20439;-76
2022/03/20 06:09:54;;;;;;;2.50;1.93;;;1.80;99.90;;;;;;6236270;28;20591;-76
2022/03/20 06:13:01;;;;;;;5.87;2.37;;;1.80;99.90;;;;;;6237148;28;20300;-76
2022/03/20 06:16:08;;;;;;;7.03;2.30;;;1.90;99.90;;;;;;6236662;28;20565;-76
2022/03/20 06:19:16;;;;;;;6.50;2.07;;;1.90;99.90;;;;;;6237276;28;20301;-76
2022/03/20 06:22:22;;;;;;;3.03;1.80;;;1.90;99.90;;;;;;6236535;28;20294;-77
2022/03/20 06:25:27;;;;;;;4.23;2.00;;;2.00;99.90;;;;;;6237486;28;20457;-76
2022/03/20 06:28:32;;;;;;;5.73;2.00;;;2.00;99.90;;;;;;6236874;28;20301;-76
2022/03/20 06:31:38;;;;;;;4.00;1.87;;;2.10;99.90;;;;;;6238021;28;20277;-77
2022/03/20 06:34:45;;;;;;;5.83;1.87;;;2.20;99.90;;;;;;6237449;28;20469;-77
2022/03/20 06:37:53;;;;;;;1.87;1.87;;;2.20;99.90;;;;;;6235984;28;20290;-76
2022/03/20 06:40:58;;;;;;;6.53;2.10;;;2.30;99.90;;;;;;6236663;28;20280;-76
2022/03/20 06:44:05;;;;;;;3.87;2.13;;;2.30;99.90;;;;;;6236779;28;20306;-77
2022/03/20 06:47:12;;;;;;;5.67;1.90;;;2.40;99.90;;;;;;6237216;28;20596;-77
2022/03/20 06:50:18;;;;;;;5.23;2.13;;;2.50;99.90;;;;;;6238651;28;20280;-77
2022/03/20 06:53:24;;;;;;;2.93;1.70;;;2.50;99.90;;;;;;6238281;28;20308;-78
2022/03/20 06:56:30;;;;;;;3.80;1.90;;;2.60;99.90;;;;;;6239577;28;20462;-78
2022/03/20 06:59:35;;;;;;;7.23;1.73;;;2.70;99.90;;;;;;6238533;28;20303;-77
2022/03/20 07:02:40;;;;;;;8.87;2.27;;;2.80;99.90;;;;;;6237523;28;20286;-79
2022/03/20 07:05:48;;;;;;;13.00;2.37;;;2.90;99.90;;;;;;6236574;28;20457;-76
2022/03/20 07:08:58;;;;;;;6.03;1.70;;;3.00;99.90;;;;;;6236168;28;20309;-76
2022/03/20 07:12:05;;;;;;;3.90;1.90;;;3.10;99.90;;;;;;6236220;28;20588;-75
2022/03/20 07:15:13;;;;;;;3.17;2.10;;;3.20;99.90;;;;;;6236493;28;20208;-76
2022/03/20 07:18:20;;;;;;;4.60;1.97;;;3.30;99.90;;;;;;6239189;28;20300;-77
2022/03/20 07:21:28;;;;;;;2.30;2.10;;;3.30;99.90;;;;;;6242219;28;20557;-76
2022/03/20 07:24:34;;;;;;;2.27;2.00;;;3.40;99.90;;;;;;6241799;28;20297;-78
2022/03/20 07:31:02;;;;;;;6.80;2.17;;;3.60;99.90;;;;;;6243355;28;20279;-77
2022/03/20 07:34:08;;;;;;;2.77;2.00;;;3.80;99.90;;;;;;6240711;28;20493;-77
2022/03/20 07:37:16;;;;;;;3.93;1.80;;;3.90;99.90;;;;;;6241636;28;20278;-78
2022/03/20 07:40:22;;;;;;;7.80;1.90;;;3.90;99.90;;;;;;6242068;28;20394;-76
2022/03/20 07:43:27;;;;;;;1.80;1.70;;;4.00;99.90;;;;;;6240920;28;20299;-77
2022/03/20 07:46:33;;;;;;;2.20;1.90;;;4.10;99.90;;;;;;6240951;28;20287;-76
2022/03/20 07:49:39;;;;;;;8.20;2.20;;;4.20;99.90;;;;;;6240736;28;20307;-76
2022/03/20 07:52:47;;;;;;;13.90;2.03;;;4.40;99.90;;;;;;6240379;28;20291;-77
2022/03/20 07:55:54;;;;;;;2.37;1.57;;;4.50;99.90;;;;;;6240459;28;20280;-77
2022/03/20 07:58:59;;;;;;;4.33;1.60;;;4.70;99.90;;;;;;6239798;28;20303;-78
2022/03/20 08:02:06;;;;;;;8.73;1.63;;;4.70;99.90;;;;;;6242153;28;20276;-77
2022/03/20 08:05:13;;;;;;;2.37;1.60;;;4.70;99.90;;;;;;6242647;28;20272;-78
2022/03/20 08:08:20;;;;;;;2.47;1.40;;;4.60;99.90;;;;;;6242527;28;20611;-78
2022/03/20 08:11:25;;;;;;;2.37;1.50;;;4.90;99.90;;;;;;6240903;28;20274;-78
2022/03/20 08:14:30;;;;;;;7.60;1.60;;;5.00;99.90;;;;;;6240576;28;20630;-76
2022/03/20 08:17:44;;;;;;;7.53;1.97;;;5.10;99.90;;;;;;6240385;28;20304;-77
2022/03/20 08:20:49;;;;;;;5.80;1.70;;;5.20;99.90;;;;;;6241834;28;20280;-81
2022/03/20 08:23:57;;;;;;;7.10;1.80;;;5.50;99.90;;;;;;6241500;28;20300;-78
2022/03/20 08:27:02;;;;;;;9.30;1.70;;;5.40;99.90;;;;;;6224230;28;20436;-79
2022/03/20 08:30:12;;;;;;;4.80;1.87;;;5.50;99.90;;;;;;6241312;28;20292;-78
2022/03/20 08:33:17;;;;;;;5.27;2.00;;;5.60;99.90;;;;;;6243059;28;20297;-79
2022/03/20 08:36:24;;;;;;;10.60;2.00;;;5.70;99.90;;;;;;6243875;28;20274;-79
2022/03/20 08:39:31;;;;;;;6.13;2.00;;;5.80;99.90;;;;;;6241967;28;20302;-77
2022/03/20 08:42:37;;;;;;;12.63;2.17;;;6.00;99.90;;;;;;6241867;28;20298;-77
2022/03/20 08:45:43;;;;;;;6.67;1.77;;;6.00;99.60;;;;;;6241949;28;20267;-78
2022/03/20 08:48:47;;;;;;;5.30;1.50;;;6.20;99.40;;;;;;6242648;28;20294;-79
2022/03/20 08:51:53;;;;;;;3.17;1.27;;;6.00;99.60;;;;;;6241856;28;20276;-77
2022/03/20 08:55:00;;;;;;;7.43;1.60;;;6.00;99.80;;;;;;6240722;28;20303;-78
2022/03/20 08:58:06;;;;;;;9.73;1.60;;;6.60;98.90;;;;;;6239078;28;20585;-77
2022/03/20 09:01:11;;;;;;;1.60;1.50;;;6.40;98.90;;;;;;6239347;28;20271;-76
2022/03/20 09:04:17;;;;;;;4.17;1.70;;;6.30;99.20;;;;;;6238589;28;20299;-76
2022/03/20 09:07:22;;;;;;;4.83;1.83;;;6.20;99.50;;;;;;6240133;28;20294;-77
2022/03/20 09:10:29;;;;;;;2.33;1.50;;;6.20;99.50;;;;;;6239294;28;20299;-79
2022/03/20 09:13:34;;;;;;;7.67;1.60;;;6.50;98.90;;;;;;6238841;28;20299;-76
2022/03/20 09:20:02;;;;;;;8.03;1.57;;;6.50;98.50;;;;;;6239329;28;20287;-77
2022/03/20 09:23:10;;;;;;;9.37;2.00;;;6.50;98.70;;;;;;6239222;28;20388;-80
2022/03/20 09:26:17;;;;;;;5.23;1.60;;;6.70;98.20;;;;;;6224070;28;20272;-82
2022/03/20 09:29:23;;;;;;;6.70;1.67;;;6.90;97.30;;;;;;6223194;28;20304;-79
2022/03/20 09:32:29;;;;;;;9.40;1.20;;;7.20;96.00;;;;;;6240969;28;20341;-77
2022/03/20 09:35:37;;;;;;;3.07;1.47;;;7.20;95.40;;;;;;6240316;28;20276;-78
2022/03/20 09:38:42;;;;;;;4.03;1.40;;;7.00;96.30;;;;;;6239038;28;20610;-77
2022/03/20 09:41:49;;;;;;;5.33;1.60;;;7.10;95.30;;;;;;6241622;28;20279;-77
2022/03/20 09:44:55;;;;;;;1.23;1.17;;;7.30;94.30;;;;;;6238312;28;20298;-77
2022/03/20 09:48:01;;;;;;;7.77;1.40;;;7.40;93.70;;;;;;6238288;28;20304;-75
2022/03/20 09:51:07;;;;;;;2.93;1.13;;;7.60;93.10;;;;;;6238558;28;20292;-80
2022/03/20 09:54:13;;;;;;;6.10;1.50;;;7.80;92.40;;;;;;6238195;28;20296;-76
2022/03/20 09:57:20;;;;;;;7.27;1.70;;;7.60;93.50;;;;;;6220681;28;20288;-78
2022/03/20 10:00:26;;;;;;;16.20;2.30;;;7.40;94.40;;;;;;6238419;28;20279;-76
2022/03/20 10:03:31;;;;;;;10.30;2.23;;;7.30;95.10;;;;;;6239086;28;20300;-76
2022/03/20 10:06:37;;;;;;;2.90;1.30;;;7.30;95.00;;;;;;6239212;28;20284;-76
2022/03/20 10:09:43;;;;;;;7.80;1.70;;;7.60;94.00;;;;;;6239372;28;20509;-82
2022/03/20 10:12:53;;;;;;;5.43;1.60;;;7.60;94.10;;;;;;6220383;28;20300;-75
2022/03/20 10:15:59;;;;;;;7.20;2.00;;;7.80;93.30;;;;;;6237708;28;20999;-77
2022/03/20 10:19:28;;;;;;;13.30;1.90;;;8.00;92.50;;;;;;6236422;28;20304;-77
2022/03/20 10:22:34;;;;;;;1.40;1.30;;;8.20;91.60;;;;;;6238083;28;20296;-76
2022/03/20 10:25:52;;;;;;;4.53;1.33;;;8.70;88.90;;;;;;6239388;28;20464;-78
2022/03/20 10:28:58;;;;;;;4.40;1.40;;;8.50;90.30;;;;;;6238382;28;20300;-78
2022/03/20 10:32:08;;;;;;;3.35;1.30;;;8.80;88.60;;;;;;6237328;28;20272;-76
2022/03/20 10:35:14;;;;;;;6.90;1.90;;;8.80;88.10;;;;;;6238151;28;20296;-78
2022/03/20 10:38:36;;;;;;;2.63;1.47;;;8.60;89.20;;;;;;6236299;28;20292;-76
2022/03/20 10:41:41;;;;;;;4.97;1.50;;;8.60;89.80;;;;;;6237959;28;20276;-74
2022/03/20 10:45:11;;;;;;;3.72;1.52;;;8.50;90.60;;;;;;6237267;28;20273;-76
2022/03/20 10:48:21;;;;;;;7.72;1.25;;;8.90;86.30;;;;;;6220178;28;20300;-75
2022/03/20 10:51:38;;;;;;;4.03;1.77;;;9.00;84.50;;;;;;6236957;28;20369;-75
2022/03/20 10:54:46;;;;;;;5.35;1.50;;;9.30;82.90;;;;;;6236926;28;20592;-75
2022/03/20 10:57:51;;;;;;;9.47;1.50;;;9.40;79.90;;;;;;6237361;28;20301;-76
2022/03/20 11:00:59;;;;;;;7.18;1.60;;;9.20;83.50;;;;;;6238584;28;20292;-81
2022/03/20 11:04:06;;;;;;;2.90;1.60;;;9.10;84.30;;;;;;6238039;28;20292;-75
2022/03/20 11:07:16;;;;;;;5.55;1.80;;;9.00;87.40;;;;;;6237009;28;20278;-77
2022/03/20 11:10:21;;;;;;;8.23;1.80;;;9.20;85.20;;;;;;6239275;28;20611;-78
2022/03/20 11:13:28;;;;;;;7.88;1.60;;;9.10;89.60;;;;;;6237705;28;20608;-77
2022/03/20 11:16:37;;;;;;;10.38;1.85;;;9.10;89.00;;;;;;6238836;28;20268;-82
2022/03/20 11:19:50;;;;;;;6.05;1.52;;;9.00;90.60;;;;;;6240175;28;20305;-81
2022/03/20 11:22:56;;;;;;;9.90;1.95;;;9.20;88.20;;;;;;6237383;28;20292;-76
2022/03/20 11:26:04;;;;;;;7.10;1.60;;;9.20;86.10;;;;;;6236929;28;20272;-77
2022/03/20 11:29:13;;;;;;;9.90;1.50;;;9.20;87.00;;;;;;6238707;28;20296;-78
2022/03/20 11:32:24;;;;;;;8.40;1.50;;;9.30;86.70;;;;;;6237937;28;20315;-79
2022/03/20 11:35:32;;;;;;;4.07;1.45;;;9.40;86.90;;;;;;6239737;28;20268;-84
2022/03/20 11:38:41;;;;;;;6.57;1.58;;;9.40;86.80;;;;;;6236241;28;20297;-77
2022/03/20 11:41:46;;;;;;;8.23;1.40;;;9.50;85.80;;;;;;6237879;28;20280;-79
2022/03/20 11:45:16;;;;;;;5.10;2.08;;;9.60;83.90;;;;;;6236159;28;20300;-75
2022/03/20 11:48:23;;;;;;;6.63;1.70;;;10.30;74.60;;;;;;6235330;28;20470;-76
2022/03/20 11:51:54;;;;;;;3.30;1.77;;;10.30;73.90;;;;;;6236107;28;20291;-77
2022/03/20 11:54:59;;;;;;;3.95;1.67;;;10.50;70.20;;;;;;6235351;28;20564;-75
2022/03/20 11:58:09;;;;;;;8.45;1.70;;;10.70;67.70;;;;;;6235739;28;20296;-76
2022/03/20 12:01:15;;;;;;;5.30;1.58;;;10.60;69.10;;;;;;6236574;28;20292;-75
2022/03/20 12:04:25;;;;;;;5.82;1.60;;;10.40;73.10;;;;;;6238172;28;20308;-75
2022/03/20 12:07:36;;;;;;;7.43;1.38;;;10.20;76.50;;;;;;6239158;28;20591;-76
2022/03/20 12:10:51;;;;;;;4.43;1.58;;;10.40;71.60;;;;;;6240634;28;20304;-75
2022/03/20 12:14:13;;;;;;;5.95;1.70;;;10.40;73.50;;;;;;6239725;28;20587;-77
2022/03/20 12:17:19;;;;;;;4.43;1.80;;;10.60;69.90;;;;;;6240299;28;20292;-78
2022/03/20 12:21:02;;;;;;;7.75;1.70;;;11.10;63.30;;;;;;6239663;28;20583;-76
2022/03/20 12:24:52;;;;;;;6.82;1.65;;;11.10;64.00;;;;;;6236809;28;20313;-75
2022/03/20 12:27:57;;;;;;;9.63;1.70;;;10.70;70.00;;;;;;6240912;28;20480;-77
2022/03/20 12:31:02;;;;;;;6.43;1.70;;;10.60;74.20;;;;;;6239848;28;20288;-75
2022/03/20 12:34:19;;;;;;;3.55;1.65;;;10.60;74.80;;;;;;6238688;28;20296;-75
2022/03/20 12:37:43;;;;;;;6.97;1.60;;;11.10;65.20;;;;;;6239136;28;20296;-74
2022/03/20 12:40:48;;;;;;;7.38;1.65;;;11.20;64.20;;;;;;6239393;28;20308;-76
2022/03/20 12:44:00;;;;;;;1.67;1.58;;;10.90;69.60;;;;;;6239461;28;20623;-76
2022/03/20 12:47:08;;;;;;;9.77;2.47;;;10.80;70.70;;;;;;6238481;28;20272;-76
2022/03/20 12:50:13;;;;;;;9.57;2.38;;;10.70;72.10;;;;;;6239181;28;20272;-76
2022/03/20 12:53:24;;;;;;;9.27;1.77;;;10.80;70.80;;;;;;6238862;28;20308;-76
2022/03/20 12:56:29;;;;;;;8.68;1.95;;;10.90;70.00;;;;;;6239407;28;20268;-76
2022/03/20 12:59:34;;;;;;;12.90;2.53;;;10.90;70.30;;;;;;6238350;28;20296;-76
2022/03/20 13:03:01;;;;;;;11.75;2.17;;;10.90;71.50;;;;;;6238767;28;20284;-77
2022/03/20 13:06:06;;;;;;;6.78;2.00;;;10.80;74.20;;;;;;6239930;28;20277;-77
2022/03/20 13:09:15;;;;;;;10.23;1.75;;;10.90;72.10;;;;;;6238358;28;20327;-77
2022/03/20 13:12:20;;;;;;;3.47;1.60;;;11.10;66.50;;;;;;6237809;28;20296;-76
2022/03/20 13:15:28;;;;;;;12.05;3.10;;;11.10;67.00;;;;;;6237744;28;20272;-76
2022/03/20 13:18:35;;;;;;;13.88;1.90;;;11.20;66.40;;;;;;6238232;28;20296;-77
2022/03/20 13:21:49;;;;;;;16.35;2.03;;;11.30;65.60;;;;;;6238749;28;20275;-77
2022/03/20 13:24:56;;;;;;;5.35;1.70;;;11.30;64.90;;;;;;6237121;28;20297;-77
2022/03/20 13:28:01;;;;;;;11.23;1.70;;;11.30;65.50;;;;;;6238437;28;20296;-76
2022/03/20 13:31:13;;;;;;;6.47;2.05;;;11.20;64.30;;;;;;6239458;28;20277;-77
2022/03/20 13:34:20;;;;;;;5.78;1.80;;;11.30;64.40;;;;;;6238550;28;20292;-77
2022/03/20 13:37:25;;;;;;;7.00;1.75;;;12.00;58.40;;;;;;6238145;28;20292;-77
2022/03/20 13:40:34;;;;;;;11.00;2.63;;;11.70;61.90;;;;;;6238274;28;20543;-76
2022/03/20 13:43:40;;;;;;;8.13;1.80;;;11.50;62.80;;;;;;6237475;28;20483;-77
2022/03/20 13:46:45;;;;;;;1.45;1.35;;;11.40;62.20;;;;;;6237846;28;20274;-76
2022/03/20 13:49:53;;;;;;;3.13;1.33;;;11.90;56.90;;;;;;6237771;28;20296;-76
2022/03/20 13:52:59;;;;;;;5.10;1.60;;;11.80;56.90;;;;;;6237064;28;20297;-76
2022/03/20 13:56:24;;;;;;;8.70;1.65;;;11.90;57.50;;;;;;6237532;28;20466;-77
2022/03/20 13:59:32;;;;;;;5.95;1.60;;;12.20;59.60;;;;;;6236765;28;20297;-77
2022/03/20 14:02:41;;;;;;;4.55;1.48;;;12.70;54.70;;;;;;6237322;28;20364;-76
2022/03/20 14:05:52;;;;;;;2.05;1.40;;;13.00;53.00;;;;;;6237709;28;20572;-77
2022/03/20 14:08:58;;;;;;;3.17;1.40;;;12.60;56.50;;;;;;6236884;28;20303;-76
2022/03/20 14:12:28;;;;;;;5.57;3.78;;;12.50;54.90;;;;;;6237052;28;20292;-77
2022/03/20 14:15:38;;;;;;;2.55;1.50;;;12.40;54.90;;;;;;6237151;28;20272;-75
2022/03/20 14:18:57;;;;;;;1.60;1.50;;;12.10;56.20;;;;;;6237014;28;20297;-76
2022/03/20 14:22:03;;;;;;;2.60;1.40;;;12.00;57.00;;;;;;6236566;28;20276;-76
2022/03/20 14:25:09;;;;;;;2.35;1.10;;;12.30;55.00;;;;;;6237894;28;20272;-76
2022/03/20 14:28:24;;;;;;;2.05;1.40;;;12.60;53.90;;;;;;6237484;28;20296;-74
2022/03/20 14:41:52;;;;;;;11.18;1.92;;;12.40;56.10;;;;;;6237184;28;20391;-77
2022/03/20 14:45:00;;;;;;;2.42;1.58;;;12.10;57.70;;;;;;6235784;28;20328;-78
2022/03/20 14:48:10;;;;;;;2.53;1.15;;;12.10;56.60;;;;;;6237084;28;20303;-78
2022/03/20 14:51:15;;;;;;;1.70;1.40;;;12.30;55.90;;;;;;6236616;28;20277;-78
2022/03/20 14:54:20;;;;;;;4.30;1.35;;;11.90;58.90;;;;;;6237072;28;20305;-77
2022/03/20 14:57:26;;;;;;;5.45;1.88;;;11.80;60.60;;;;;;6219196;28;20280;-77
2022/03/20 15:00:33;;;;;;;5.32;1.77;;;12.00;61.70;;;;;;6223842;28;20273;-80
2022/03/20 15:03:39;;;;;;;2.75;1.55;;;12.20;61.40;;;;;;6238464;28;20304;-78
2022/03/20 15:06:47;;;;;;;2.70;1.60;;;11.90;63.90;;;;;;6237992;28;20264;-77
2022/03/20 15:13:15;;;;;;;14.75;2.20;;;11.70;69.20;;;;;;6237586;28;20305;-81
2022/03/20 15:16:24;;;;;;;11.27;2.33;;;11.60;71.80;;;;;;6236872;28;20277;-76
2022/03/20 15:19:30;;;;;;;12.38;2.10;;;11.40;73.30;;;;;;6236071;28;20296;-77
2022/03/20 15:22:35;;;;;;;5.82;2.05;;;11.40;76.10;;;;;;6238015;28;20292;-78
2022/03/20 15:25:41;;;;;;;12.55;2.47;;;11.30;75.60;;;;;;6239318;28;20272;-77
2022/03/20 15:28:47;;;;;;;13.85;2.03;;;11.20;78.50;;;;;;6236631;28;20316;-75
2022/03/20 15:31:55;;;;;;;4.90;2.10;;;11.20;79.30;;;;;;6236422;28;20273;-75
2022/03/20 15:35:01;;;;;;;4.35;1.88;;;11.10;80.90;;;;;;6234967;28;20304;-75
2022/03/20 15:38:08;;;;;;;8.68;2.22;;;11.20;78.00;;;;;;6236168;28;20316;-75
2022/03/20 15:41:15;;;;;;;9.93;2.38;;;11.40;73.10;;;;;;6240689;28;20272;-76
2022/03/20 15:44:20;;;;;;;6.57;2.20;;;11.20;76.00;;;;;;6240566;28;20300;-76
2022/03/20 15:47:26;;;;;;;7.80;3.30;;;11.00;78.80;;;;;;6240493;28;20292;-75
2022/03/20 15:50:32;;;;;;;3.20;1.40;;;10.80;80.60;;;;;;6240806;28;20547;-75
2022/03/20 15:53:38;;;;;;;5.68;1.70;;;11.00;75.20;;;;;;6239482;28;20304;-75
2022/03/20 15:56:45;;;;;;;13.75;1.90;;;10.80;76.20;;;;;;6240403;28;20277;-76
2022/03/20 15:59:51;;;;;;;3.83;1.90;;;10.70;77.90;;;;;;6240043;28;20296;-75
2022/03/20 16:02:57;;;;;;;11.35;2.05;;;10.50;80.10;;;;;;6239886;28;20292;-75
2022/03/20 16:06:07;;;;;;;6.18;3.15;;;10.60;72.60;;;;;;6240717;28;20277;-75
2022/03/20 16:09:15;;;;;;;19.10;2.35;;;10.50;73.30;;;;;;6240198;28;20309;-76
2022/03/20 16:12:40;;;;;;;16.63;2.53;;;10.50;69.90;;;;;;6239482;28;20292;-74
2022/03/20 16:15:47;;;;;;;10.13;2.40;;;10.60;68.10;;;;;;6240584;28;20291;-77
2022/03/20 16:18:53;;;;;;;8.13;1.58;;;10.30;73.20;;;;;;6239612;28;20300;-77
2022/03/20 16:21:59;;;;;;;8.52;4.30;;;10.50;67.50;;;;;;6239831;28;20448;-76
2022/03/20 16:28:32;;;;;;;48.30;23.73;;;10.20;72.20;;;;;;6240061;28;20480;-76
2022/03/20 16:31:38;;;;;;;25.80;12.98;;;10.20;72.50;;;;;;6241059;28;20270;-75
2022/03/20 16:34:47;;;;;;;13.75;11.63;;;10.10;72.80;;;;;;6242030;28;20300;-80
2022/03/20 16:37:53;;;;;;;20.63;8.07;;;10.00;73.70;;;;;;6241957;28;20284;-76
2022/03/20 16:40:58;;;;;;;15.85;7.07;;;10.00;70.40;;;;;;6239739;28;20268;-74
2022/03/20 16:44:04;;;;;;;13.95;4.28;;;9.90;70.60;;;;;;6239088;28;20299;-75
2022/03/20 16:47:10;;;;;;;10.40;3.17;;;9.80;71.90;;;;;;6238625;28;20272;-74
2022/03/20 16:50:18;;;;;;;8.10;2.97;;;9.60;74.60;;;;;;6238264;28;20272;-78
2022/03/20 16:53:24;;;;;;;6.25;2.33;;;9.40;77.30;;;;;;6239733;28;20297;-77
2022/03/20 16:56:29;;;;;;;5.53;1.73;;;9.40;77.60;;;;;;6240635;28;20458;-78
2022/03/20 16:59:35;;;;;;;6.82;2.10;;;9.40;75.70;;;;;;6240020;28;20288;-78
2022/03/20 17:02:40;;;;;;;6.22;1.80;;;9.10;81.50;;;;;;6239913;28;20288;-77
2022/03/20 17:05:47;;;;;;;5.22;1.50;;;8.90;82.60;;;;;;6223173;28;20280;-78
2022/03/20 17:08:52;;;;;;;9.95;1.70;;;8.80;84.40;;;;;;6239876;28;20309;-78
2022/03/20 17:11:58;;;;;;;6.53;2.05;;;8.60;86.00;;;;;;6239257;28;20268;-74
2022/03/20 17:15:03;;;;;;;3.97;1.80;;;8.50;86.60;;;;;;6239227;28;20300;-76
2022/03/20 17:18:14;;;;;;;5.57;1.50;;;8.30;88.50;;;;;;6239079;28;20292;-79